Time;durP1;ratioP1;P1;durP2;ratioP2;P2;SDS_P1;SDS_P2;PMS_P1;PMS_P2;Temp;Humidity;BMP_temperature;BMP_pressure;BME280_temperature;BME280_humidity;BME280_pressure;Samples;Min_cycle;Max_cycle;Signal;HPM_P1;HPM_P2
2021/08/19 00:01:49;;;;;;;1.30;1.20;;;19.80;99.90;;;;;;5008675;28;20270;-78
2021/08/19 00:04:16;;;;;;;1.98;1.77;;;19.80;99.90;;;;;;5015966;28;20220;-78
2021/08/19 00:06:43;;;;;;;1.60;1.30;;;19.80;99.90;;;;;;5012835;28;20273;-78
2021/08/19 00:09:10;;;;;;;1.40;1.30;;;19.80;99.90;;;;;;5008159;28;20239;-78
2021/08/19 00:11:37;;;;;;;1.33;1.23;;;19.80;99.90;;;;;;5008130;28;20224;-77
2021/08/19 00:14:04;;;;;;;1.40;1.30;;;19.80;99.90;;;;;;5002715;28;20285;-78
2021/08/19 00:16:33;;;;;;;1.40;1.30;;;19.80;99.90;;;;;;5008901;28;20701;-77
2021/08/19 00:19:00;;;;;;;1.40;1.30;;;19.90;99.90;;;;;;5006612;28;20320;-78
2021/08/19 00:21:27;;;;;;;1.73;1.40;;;19.90;99.90;;;;;;5004766;28;20238;-77
2021/08/19 00:23:55;;;;;;;1.60;1.50;;;19.90;99.90;;;;;;5007882;28;20219;-77
2021/08/19 00:26:22;;;;;;;2.58;1.50;;;19.90;99.90;;;;;;5005277;28;20243;-79
2021/08/19 00:28:49;;;;;;;1.38;1.27;;;19.90;99.90;;;;;;5011360;28;20231;-77
2021/08/19 00:31:17;;;;;;;1.25;1.15;;;19.90;99.90;;;;;;5006047;28;20274;-77
2021/08/19 00:33:46;;;;;;;1.50;1.40;;;19.90;99.90;;;;;;5008815;28;20324;-77
2021/08/19 00:36:13;;;;;;;1.60;1.50;;;19.90;99.90;;;;;;5005892;28;20220;-78
2021/08/19 00:38:40;;;;;;;1.52;1.42;;;19.90;99.90;;;;;;5008668;28;20274;-77
2021/08/19 00:41:07;;;;;;;2.78;1.65;;;20.00;99.90;;;;;;5006235;28;20286;-77
2021/08/19 00:43:35;;;;;;;2.17;1.40;;;19.90;99.90;;;;;;5009559;28;20223;-77
2021/08/19 00:46:03;;;;;;;2.10;1.30;;;19.90;99.90;;;;;;5006308;28;20278;-77
2021/08/19 00:48:30;;;;;;;1.55;1.45;;;19.90;99.90;;;;;;5011928;28;20235;-77
2021/08/19 00:50:59;;;;;;;1.20;1.10;;;19.90;99.90;;;;;;5002180;28;20302;-78
2021/08/19 00:53:26;;;;;;;1.40;1.30;;;19.90;99.90;;;;;;5005450;28;20294;-79
2021/08/19 00:55:54;;;;;;;1.42;1.33;;;19.90;99.90;;;;;;5016637;28;20822;-78
2021/08/19 00:58:22;;;;;;;1.98;1.67;;;19.90;99.90;;;;;;5007165;28;20256;-76
2021/08/19 01:00:49;;;;;;;1.48;1.38;;;19.80;99.90;;;;;;5004794;28;20230;-78
2021/08/19 01:03:16;;;;;;;1.42;1.33;;;19.80;99.90;;;;;;5008743;28;20239;-77
2021/08/19 01:05:43;;;;;;;1.60;1.50;;;19.80;99.90;;;;;;5008664;28;20286;-78
2021/08/19 01:08:12;;;;;;;1.45;1.35;;;19.70;99.90;;;;;;5009191;28;20690;-78
2021/08/19 01:10:39;;;;;;;1.35;1.17;;;19.70;99.90;;;;;;5014483;28;20277;-78
2021/08/19 01:13:06;;;;;;;1.42;1.33;;;19.70;99.90;;;;;;5010717;28;20654;-78
2021/08/19 01:15:33;;;;;;;1.52;1.42;;;19.60;99.90;;;;;;5007987;28;20224;-76
2021/08/19 01:18:01;;;;;;;1.80;1.67;;;19.60;99.90;;;;;;5007305;28;20297;-78
2021/08/19 01:20:30;;;;;;;1.70;1.60;;;19.60;99.90;;;;;;5005614;28;20228;-77
2021/08/19 01:22:58;;;;;;;1.77;1.58;;;19.50;99.90;;;;;;5007815;28;20235;-77
2021/08/19 01:25:28;;;;;;;1.77;1.50;;;19.50;99.90;;;;;;5005073;28;20566;-77
2021/08/19 01:27:57;;;;;;;1.65;1.55;;;19.50;99.90;;;;;;5014724;28;20227;-78
2021/08/19 01:30:26;;;;;;;2.65;1.52;;;19.60;99.90;;;;;;5004422;28;20639;-78
2021/08/19 01:32:53;;;;;;;1.48;1.38;;;19.60;99.90;;;;;;5012775;28;20784;-78
2021/08/19 01:35:21;;;;;;;1.83;1.73;;;19.60;99.90;;;;;;5008357;28;20220;-77
2021/08/19 01:37:49;;;;;;;2.45;1.42;;;19.50;99.90;;;;;;5011639;28;20314;-77
2021/08/19 01:40:16;;;;;;;1.40;1.30;;;19.50;99.90;;;;;;5007486;28;20290;-79
2021/08/19 01:42:44;;;;;;;4.40;1.48;;;19.50;99.90;;;;;;5011080;28;20301;-77
2021/08/19 01:45:13;;;;;;;2.60;1.63;;;19.50;99.90;;;;;;5019273;28;20223;-78
2021/08/19 01:47:40;;;;;;;1.58;1.48;;;19.40;99.90;;;;;;5011525;28;20676;-77
2021/08/19 01:50:08;;;;;;;1.42;1.30;;;19.40;99.90;;;;;;5011666;28;20318;-78
2021/08/19 01:52:35;;;;;;;1.52;1.42;;;19.40;99.90;;;;;;5010905;28;20224;-78
2021/08/19 01:55:02;;;;;;;1.50;1.40;;;19.30;99.90;;;;;;5010967;28;20286;-75
2021/08/19 01:57:29;;;;;;;1.73;1.63;;;19.30;99.90;;;;;;5014018;28;20234;-77
2021/08/19 01:59:57;;;;;;;1.40;1.30;;;19.20;99.90;;;;;;5016730;28;20312;-77
2021/08/19 02:02:25;;;;;;;1.60;1.50;;;19.20;99.90;;;;;;5015238;28;20290;-78
2021/08/19 02:04:52;;;;;;;1.27;1.17;;;19.10;99.90;;;;;;5009533;28;20224;-77
2021/08/19 02:07:19;;;;;;;2.75;1.42;;;19.10;99.90;;;;;;5013402;28;20235;-77
2021/08/19 02:09:46;;;;;;;1.60;1.50;;;19.10;99.90;;;;;;5014811;28;20223;-77
2021/08/19 02:12:13;;;;;;;1.65;1.55;;;19.10;99.90;;;;;;5013136;28;20711;-78
2021/08/19 02:14:40;;;;;;;3.00;1.60;;;19.20;99.90;;;;;;5015708;28;20742;-78
2021/08/19 02:17:07;;;;;;;1.52;1.42;;;19.20;99.90;;;;;;5013745;28;20373;-77
2021/08/19 02:19:36;;;;;;;1.73;1.63;;;19.20;99.90;;;;;;5017653;28;20246;-78
2021/08/19 02:22:03;;;;;;;1.67;1.58;;;19.20;99.90;;;;;;5008342;28;20219;-77
2021/08/19 02:24:30;;;;;;;1.50;1.40;;;19.30;99.90;;;;;;5008844;28;20286;-78
2021/08/19 02:26:57;;;;;;;1.40;1.30;;;19.30;99.90;;;;;;5012126;28;20281;-78
2021/08/19 02:29:24;;;;;;;1.45;1.35;;;19.30;99.90;;;;;;5005619;28;20416;-78
2021/08/19 02:31:51;;;;;;;1.65;1.55;;;19.40;99.90;;;;;;5001170;28;20282;-78
2021/08/19 02:34:18;;;;;;;2.40;1.60;;;19.30;99.90;;;;;;5006027;28;20228;-79
2021/08/19 02:36:46;;;;;;;1.60;1.50;;;19.30;99.90;;;;;;5016658;28;20282;-77
2021/08/19 02:39:13;;;;;;;1.55;1.33;;;19.20;99.90;;;;;;5006433;28;20262;-78
2021/08/19 02:41:40;;;;;;;1.25;1.15;;;19.20;99.90;;;;;;5002735;28;20238;-78
2021/08/19 02:44:07;;;;;;;1.30;1.20;;;19.20;99.90;;;;;;5002656;28;20654;-77
2021/08/19 02:46:34;;;;;;;1.50;1.40;;;19.20;99.90;;;;;;5002071;28;20231;-76
2021/08/19 02:49:01;;;;;;;1.92;1.63;;;19.20;99.90;;;;;;5009278;28;20223;-77
2021/08/19 02:51:29;;;;;;;1.67;1.50;;;19.20;99.90;;;;;;5002446;28;20306;-77
2021/08/19 02:53:57;;;;;;;1.50;1.40;;;19.20;99.90;;;;;;5000876;28;21029;-77
2021/08/19 02:56:24;;;;;;;1.60;1.50;;;19.20;99.90;;;;;;5001247;28;20219;-77
2021/08/19 02:58:51;;;;;;;1.67;1.58;;;19.10;99.90;;;;;;5005471;28;20224;-77
2021/08/19 03:01:18;;;;;;;2.00;1.80;;;19.10;99.90;;;;;;5009195;28;20302;-78
2021/08/19 03:03:45;;;;;;;1.50;1.40;;;19.10;99.90;;;;;;5005882;28;20216;-78
2021/08/19 03:06:12;;;;;;;1.60;1.50;;;19.10;99.90;;;;;;5007279;28;20220;-78
2021/08/19 03:08:39;;;;;;;1.75;1.65;;;19.00;99.90;;;;;;5007128;28;20228;-77
2021/08/19 03:11:08;;;;;;;1.80;1.70;;;19.00;99.90;;;;;;5013036;28;20224;-77
2021/08/19 03:13:35;;;;;;;1.70;1.60;;;19.00;99.90;;;;;;5011466;28;20219;-78
2021/08/19 03:16:02;;;;;;;1.80;1.70;;;18.90;99.90;;;;;;5004899;28;20282;-78
2021/08/19 03:18:29;;;;;;;1.55;1.40;;;18.90;99.90;;;;;;5009784;28;20632;-77
2021/08/19 03:20:56;;;;;;;1.70;1.60;;;18.90;99.90;;;;;;5004145;28;20232;-78
2021/08/19 03:23:24;;;;;;;1.52;1.42;;;18.90;99.90;;;;;;5008743;28;20298;-77
2021/08/19 03:25:52;;;;;;;1.83;1.70;;;18.90;99.90;;;;;;5019682;28;20225;-79
2021/08/19 03:28:23;;;;;;;1.55;1.45;;;18.80;99.90;;;;;;5010227;28;20236;-77
2021/08/19 03:30:50;;;;;;;1.60;1.50;;;18.80;99.90;;;;;;5013139;28;20237;-75
2021/08/19 03:33:17;;;;;;;1.77;1.67;;;18.80;99.90;;;;;;5005286;28;20224;-77
2021/08/19 03:35:44;;;;;;;1.50;1.40;;;18.80;99.90;;;;;;5011250;28;20310;-78
2021/08/19 03:38:11;;;;;;;1.95;1.75;;;18.80;99.90;;;;;;5009386;28;20223;-75
2021/08/19 03:40:39;;;;;;;1.50;1.40;;;18.80;99.90;;;;;;5006814;28;20227;-78
2021/08/19 03:43:06;;;;;;;1.40;1.30;;;18.80;99.90;;;;;;5018650;23;20236;-74
2021/08/19 03:45:34;;;;;;;3.17;1.48;;;18.80;99.90;;;;;;5003779;28;20696;-74
2021/08/19 03:48:01;;;;;;;1.88;1.58;;;18.80;99.90;;;;;;5002430;28;20223;-74
2021/08/19 03:50:28;;;;;;;1.65;1.55;;;18.70;99.90;;;;;;5005578;28;20631;-74
2021/08/19 03:52:55;;;;;;;2.28;1.75;;;18.80;99.90;;;;;;5007238;28;20458;-74
2021/08/19 03:55:22;;;;;;;1.60;1.50;;;18.80;99.90;;;;;;5001276;28;20270;-74
2021/08/19 03:57:49;;;;;;;1.73;1.63;;;18.80;99.90;;;;;;5004148;28;20282;-75
2021/08/19 04:00:17;;;;;;;1.73;1.63;;;18.80;99.90;;;;;;5003636;28;20306;-74
2021/08/19 04:02:46;;;;;;;1.63;1.52;;;18.70;99.90;;;;;;5002710;28;20293;-73
2021/08/19 04:05:14;;;;;;;1.70;1.58;;;18.70;99.90;;;;;;5003446;28;20307;-74
2021/08/19 04:07:41;;;;;;;1.60;1.40;;;18.80;99.90;;;;;;5001355;28;20224;-74
2021/08/19 04:10:09;;;;;;;1.63;1.52;;;18.80;99.90;;;;;;5004480;28;20259;-75
2021/08/19 04:12:36;;;;;;;1.80;1.70;;;18.80;99.90;;;;;;5000364;28;20228;-74
2021/08/19 04:15:04;;;;;;;1.55;1.45;;;18.70;99.90;;;;;;5004194;28;20648;-74
2021/08/19 04:17:31;;;;;;;1.60;1.50;;;18.70;99.90;;;;;;5000442;28;20223;-73
2021/08/19 04:19:59;;;;;;;1.55;1.45;;;18.80;99.90;;;;;;5002722;28;20294;-74
2021/08/19 04:22:26;;;;;;;1.70;1.60;;;18.80;99.90;;;;;;5004299;28;20662;-73
2021/08/19 04:24:53;;;;;;;1.67;1.50;;;18.70;99.90;;;;;;5005197;28;20216;-74
2021/08/19 04:27:20;;;;;;;2.10;1.90;;;18.70;99.90;;;;;;5003219;28;20232;-74
2021/08/19 04:29:47;;;;;;;1.52;1.40;;;18.60;99.90;;;;;;5002136;28;20224;-73
2021/08/19 04:32:15;;;;;;;1.60;1.50;;;18.60;99.90;;;;;;5001770;28;20231;-74
2021/08/19 04:34:42;;;;;;;1.73;1.63;;;18.50;99.90;;;;;;5003191;28;20230;-74
2021/08/19 04:37:10;;;;;;;1.83;1.67;;;18.50;99.90;;;;;;5004616;28;20639;-73
2021/08/19 04:39:37;;;;;;;1.65;1.55;;;18.40;99.90;;;;;;4999573;28;20227;-74
2021/08/19 04:42:05;;;;;;;1.60;1.50;;;18.40;99.90;;;;;;4999913;28;20605;-74
2021/08/19 04:44:32;;;;;;;1.67;1.33;;;18.40;99.90;;;;;;4999641;28;20940;-73
2021/08/19 04:46:59;;;;;;;1.92;1.73;;;18.40;99.90;;;;;;5000817;28;20741;-74
2021/08/19 04:49:26;;;;;;;1.67;1.58;;;18.40;99.90;;;;;;4999994;28;20216;-73
2021/08/19 04:51:53;;;;;;;1.70;1.60;;;18.40;99.90;;;;;;5003659;28;20247;-73
2021/08/19 04:54:22;;;;;;;1.70;1.60;;;18.40;99.90;;;;;;4998827;28;20228;-73
2021/08/19 04:56:49;;;;;;;1.77;1.67;;;18.40;99.90;;;;;;5006518;28;20240;-73
2021/08/19 04:59:16;;;;;;;1.52;1.42;;;18.50;99.90;;;;;;5007554;28;20227;-72
2021/08/19 05:01:43;;;;;;;1.63;1.52;;;18.50;99.90;;;;;;5011903;28;20706;-73
2021/08/19 05:04:10;;;;;;;1.77;1.33;;;18.50;99.90;;;;;;5006500;28;20224;-74
2021/08/19 05:06:38;;;;;;;1.73;1.60;;;18.50;99.90;;;;;;5005228;28;20228;-74
2021/08/19 05:09:07;;;;;;;1.65;1.50;;;18.60;99.90;;;;;;5008739;28;20220;-74
2021/08/19 05:11:35;;;;;;;1.70;1.60;;;18.60;99.90;;;;;;5011200;28;20282;-75
2021/08/19 05:14:03;;;;;;;1.60;1.50;;;18.70;99.90;;;;;;5010633;28;20241;-74
2021/08/19 05:16:31;;;;;;;1.83;1.73;;;18.70;99.90;;;;;;5006367;28;20318;-73
2021/08/19 05:18:58;;;;;;;1.70;1.50;;;18.70;99.90;;;;;;5008056;28;20645;-73
2021/08/19 05:21:25;;;;;;;1.77;1.67;;;18.70;99.90;;;;;;5007384;28;20697;-74
2021/08/19 05:23:53;;;;;;;1.60;1.50;;;18.80;99.90;;;;;;5008265;28;20286;-74
2021/08/19 05:26:21;;;;;;;1.50;1.40;;;18.80;99.90;;;;;;5005377;28;20224;-73
2021/08/19 05:28:49;;;;;;;1.92;1.73;;;18.90;99.90;;;;;;5005737;28;20220;-73
2021/08/19 05:31:17;;;;;;;1.83;1.73;;;18.90;99.90;;;;;;5005103;28;20286;-73
2021/08/19 05:33:44;;;;;;;1.85;1.73;;;19.00;99.90;;;;;;5007560;28;20231;-74
2021/08/19 05:36:12;;;;;;;1.77;1.67;;;19.00;99.90;;;;;;5012152;28;20274;-73
2021/08/19 05:38:39;;;;;;;1.65;1.55;;;19.10;99.90;;;;;;5006221;28;21502;-74
2021/08/19 05:41:06;;;;;;;1.90;1.80;;;19.20;99.90;;;;;;5004925;28;20220;-74
2021/08/19 05:43:34;;;;;;;4.03;1.88;;;19.30;99.90;;;;;;5006227;28;20232;-74
2021/08/19 05:46:02;;;;;;;1.63;1.52;;;19.40;99.90;;;;;;5009429;28;20235;-74
2021/08/19 05:48:29;;;;;;;1.73;1.63;;;19.60;99.90;;;;;;5005345;28;20227;-73
2021/08/19 05:50:56;;;;;;;1.92;1.75;;;19.80;99.90;;;;;;5008104;28;20286;-74
2021/08/19 05:53:23;;;;;;;1.77;1.67;;;19.80;99.90;;;;;;5005296;28;20240;-76
2021/08/19 05:55:50;;;;;;;1.95;1.85;;;19.90;99.90;;;;;;5007506;28;20220;-74
2021/08/19 05:58:18;;;;;;;1.95;1.67;;;19.90;99.90;;;;;;5008152;28;20220;-74
2021/08/19 06:00:47;;;;;;;1.98;1.80;;;19.80;99.90;;;;;;5010357;28;20636;-75
2021/08/19 06:03:17;;;;;;;1.95;1.85;;;19.90;99.90;;;;;;5010692;28;20258;-73
2021/08/19 06:05:44;;;;;;;2.05;1.85;;;19.90;99.90;;;;;;5010123;28;20227;-73
2021/08/19 06:08:11;;;;;;;1.90;1.70;;;20.00;99.90;;;;;;5007986;28;20275;-71
2021/08/19 06:10:38;;;;;;;2.25;1.98;;;20.00;99.90;;;;;;5007695;28;20282;-74
2021/08/19 06:13:05;;;;;;;2.05;1.88;;;20.20;99.90;;;;;;5009638;28;20235;-74
2021/08/19 06:15:32;;;;;;;1.90;1.80;;;20.30;99.90;;;;;;5010813;28;20287;-73
2021/08/19 06:17:59;;;;;;;2.13;1.92;;;20.40;99.90;;;;;;5007135;28;20216;-74
2021/08/19 06:20:29;;;;;;;2.08;1.88;;;20.50;99.90;;;;;;5007610;28;20270;-73
2021/08/19 06:22:56;;;;;;;3.42;2.05;;;20.50;99.90;;;;;;5004411;28;20725;-75
2021/08/19 06:25:23;;;;;;;2.10;1.90;;;20.40;99.90;;;;;;5002697;28;20224;-75
2021/08/19 06:27:53;;;;;;;2.30;2.10;;;20.40;99.90;;;;;;5001755;28;20279;-74
2021/08/19 06:30:21;;;;;;;2.40;1.83;;;20.70;99.90;;;;;;5004517;28;20224;-73
2021/08/19 06:32:48;;;;;;;2.33;2.10;;;20.90;99.90;;;;;;5005602;28;20239;-75
2021/08/19 06:35:15;;;;;;;2.75;2.40;;;21.20;99.90;;;;;;5005741;28;20228;-73
2021/08/19 06:37:43;;;;;;;2.25;2.05;;;21.50;99.90;;;;;;5002532;28;20236;-74
2021/08/19 06:40:11;;;;;;;2.30;2.10;;;21.50;99.90;;;;;;5005606;28;20224;-75
2021/08/19 06:42:38;;;;;;;3.47;2.17;;;21.20;99.90;;;;;;5007302;28;20286;-74
2021/08/19 06:45:07;;;;;;;2.40;1.95;;;21.20;99.90;;;;;;5003892;28;20325;-74
2021/08/19 06:47:34;;;;;;;2.30;2.10;;;21.40;99.90;;;;;;4998644;28;20644;-72
2021/08/19 06:50:01;;;;;;;2.35;2.15;;;21.60;99.90;;;;;;4992075;28;20228;-75
2021/08/19 06:52:28;;;;;;;2.33;2.10;;;21.80;99.90;;;;;;4998399;28;20254;-75
2021/08/19 06:54:58;;;;;;;1.90;1.77;;;21.80;99.90;;;;;;4996800;28;20211;-75
2021/08/19 06:57:25;;;;;;;5.10;2.10;;;22.00;99.90;;;;;;4996304;28;20694;-74
2021/08/19 06:59:52;;;;;;;2.15;1.95;;;22.10;99.90;;;;;;4997853;28;20220;-76
2021/08/19 07:02:19;;;;;;;2.65;2.15;;;22.30;99.90;;;;;;4997032;28;20232;-74
2021/08/19 07:04:46;;;;;;;2.72;1.98;;;22.30;99.90;;;;;;4988327;28;20295;-76
2021/08/19 07:07:13;;;;;;;2.10;1.90;;;22.40;99.90;;;;;;5001018;28;20224;-75
2021/08/19 07:09:40;;;;;;;3.60;2.05;;;22.70;99.90;;;;;;5002740;28;20310;-76
2021/08/19 07:12:09;;;;;;;2.50;2.28;;;22.90;99.90;;;;;;4994588;28;20239;-73
2021/08/19 07:14:36;;;;;;;3.22;2.55;;;22.90;99.90;;;;;;4992188;28;20305;-74
2021/08/19 07:17:04;;;;;;;2.10;1.90;;;23.00;99.90;;;;;;4995137;28;20654;-74
2021/08/19 07:19:31;;;;;;;2.88;1.85;;;23.00;99.90;;;;;;4999742;28;20255;-76
2021/08/19 07:21:58;;;;;;;2.85;2.35;;;23.20;99.90;;;;;;4991434;28;20341;-76
2021/08/19 07:24:25;;;;;;;3.80;2.60;;;23.30;99.90;;;;;;4994170;28;20698;-76
2021/08/19 07:26:52;;;;;;;2.00;1.90;;;23.10;99.90;;;;;;4992679;28;20224;-74
2021/08/19 07:29:20;;;;;;;2.63;2.00;;;23.00;99.90;;;;;;4999292;28;20232;-75
2021/08/19 07:31:47;;;;;;;3.10;2.08;;;22.90;99.90;;;;;;4995525;28;20228;-76
2021/08/19 07:34:14;;;;;;;2.90;2.13;;;22.50;99.90;;;;;;4992647;28;20224;-73
2021/08/19 07:36:41;;;;;;;2.20;2.00;;;22.10;99.90;;;;;;4993749;28;20231;-73
2021/08/19 07:39:10;;;;;;;2.45;2.00;;;22.10;99.90;;;;;;4989842;28;20758;-74
2021/08/19 07:41:37;;;;;;;3.38;2.10;;;22.00;99.90;;;;;;4993384;28;20216;-72
2021/08/19 07:44:05;;;;;;;2.40;2.03;;;22.00;99.90;;;;;;4991302;28;20232;-74
2021/08/19 07:46:34;;;;;;;2.47;2.28;;;22.10;99.90;;;;;;4993678;28;20718;-74
2021/08/19 07:49:02;;;;;;;2.38;1.90;;;22.40;99.90;;;;;;4988038;28;20319;-73
2021/08/19 07:51:30;;;;;;;3.35;2.10;;;22.70;99.90;;;;;;4995355;28;20239;-75
2021/08/19 07:53:57;;;;;;;2.63;2.42;;;23.20;99.90;;;;;;4992165;28;20231;-75
2021/08/19 07:56:24;;;;;;;3.08;2.45;;;23.60;99.90;;;;;;4994742;28;20227;-76
2021/08/19 07:58:52;;;;;;;4.78;2.80;;;23.80;99.90;;;;;;4991700;28;20231;-75
2021/08/19 08:01:19;;;;;;;2.42;2.22;;;24.10;99.90;;;;;;4991799;28;20729;-76
2021/08/19 08:03:47;;;;;;;2.10;1.98;;;24.30;99.90;;;;;;4995384;28;20231;-75
2021/08/19 08:06:14;;;;;;;2.20;2.00;;;24.60;99.90;;;;;;4989080;28;20228;-77
2021/08/19 08:08:42;;;;;;;2.45;2.25;;;24.70;99.90;;;;;;4992276;28;20293;-76
2021/08/19 08:11:09;;;;;;;2.15;1.92;;;24.50;99.90;;;;;;4992149;28;20255;-77
2021/08/19 08:13:36;;;;;;;2.42;2.00;;;24.40;99.90;;;;;;5001324;28;20235;-77
2021/08/19 08:16:03;;;;;;;2.20;2.00;;;24.10;99.90;;;;;;5000117;28;20228;-77
2021/08/19 08:18:30;;;;;;;3.10;2.10;;;23.70;99.90;;;;;;4994092;28;20701;-75
2021/08/19 08:21:01;;;;;;;2.63;2.10;;;23.50;99.90;;;;;;4987004;28;20228;-76
2021/08/19 08:23:32;;;;;;;2.33;2.13;;;23.40;99.90;;;;;;4995171;28;20235;-75
2021/08/19 08:26:00;;;;;;;3.08;2.00;;;23.30;99.90;;;;;;4992470;28;20566;-76
2021/08/19 08:28:30;;;;;;;2.72;2.13;;;23.40;99.90;;;;;;4992341;28;20249;-77
2021/08/19 08:30:58;;;;;;;1.83;1.73;;;23.50;99.90;;;;;;4983215;28;21531;-77
2021/08/19 08:33:26;;;;;;;2.40;2.20;;;23.50;99.90;;;;;;4998149;28;20228;-76
2021/08/19 08:35:53;;;;;;;2.60;2.40;;;23.70;99.90;;;;;;4997890;28;20227;-76
2021/08/19 08:38:24;;;;;;;3.13;2.30;;;23.70;99.90;;;;;;4997390;28;20224;-77
2021/08/19 08:40:53;;;;;;;2.20;1.98;;;24.30;99.90;;;;;;4999953;28;20307;-77
2021/08/19 08:43:22;;;;;;;2.30;2.05;;;24.80;99.90;;;;;;4996135;28;20270;-75
2021/08/19 08:45:50;;;;;;;3.03;2.03;;;25.10;99.90;;;;;;4995453;28;20228;-74
2021/08/19 08:48:22;;;;;;;2.60;2.40;;;25.40;99.90;;;;;;4995882;28;20295;-76
2021/08/19 08:50:51;;;;;;;2.97;2.65;;;25.60;99.90;;;;;;4995134;28;20239;-76
2021/08/19 08:53:18;;;;;;;2.47;2.28;;;25.70;99.90;;;;;;4994683;28;20240;-75
2021/08/19 08:55:47;;;;;;;2.30;2.10;;;25.60;99.90;;;;;;4992705;28;20556;-76
2021/08/19 08:58:14;;;;;;;2.45;2.00;;;25.60;99.90;;;;;;4994636;28;20227;-75
2021/08/19 09:00:43;;;;;;;3.30;2.00;;;25.40;99.90;;;;;;4993907;28;20234;-76
2021/08/19 09:03:11;;;;;;;3.00;2.22;;;25.60;99.90;;;;;;4997331;28;20633;-75
2021/08/19 09:05:40;;;;;;;2.63;1.92;;;25.70;99.90;;;;;;4994912;28;20224;-77
2021/08/19 09:08:14;;;;;;;2.35;2.15;;;25.80;99.90;;;;;;4998710;28;20404;-76
2021/08/19 09:10:41;;;;;;;3.00;2.50;;;25.80;99.90;;;;;;4994645;28;20432;-76
2021/08/19 09:13:13;;;;;;;2.92;2.10;;;25.70;99.90;;;;;;5003907;28;20278;-76
2021/08/19 09:15:41;;;;;;;2.22;2.03;;;25.30;99.90;;;;;;4997077;28;20220;-77
2021/08/19 09:18:08;;;;;;;3.83;2.17;;;25.30;99.90;;;;;;4999629;28;20327;-76
2021/08/19 09:20:37;;;;;;;2.20;1.88;;;25.60;99.90;;;;;;4995933;28;20236;-77
2021/08/19 09:23:07;;;;;;;1.90;1.80;;;25.80;99.90;;;;;;4999454;28;20236;-77
2021/08/19 09:25:37;;;;;;;2.42;2.22;;;26.10;99.90;;;;;;4995789;28;21381;-75
2021/08/19 09:28:20;;;;;;;3.78;2.53;;;26.00;99.90;;;;;;4996585;28;20282;-78
2021/08/19 09:30:49;;;;;;;2.10;1.88;;;26.20;99.90;;;;;;4995377;28;20278;-75
2021/08/19 09:33:19;;;;;;;2.92;2.15;;;26.20;99.90;;;;;;4995742;28;20227;-77
2021/08/19 09:35:48;;;;;;;3.35;1.98;;;26.10;99.90;;;;;;4997116;28;20220;-75
2021/08/19 09:38:17;;;;;;;2.20;2.00;;;25.90;99.90;;;;;;4999171;28;20220;-77
2021/08/19 09:41:01;;;;;;;1.92;1.83;;;25.70;99.90;;;;;;4998985;28;20228;-75
2021/08/19 09:43:41;;;;;;;2.63;2.20;;;26.00;99.90;;;;;;5022633;23;20316;-71
2021/08/19 09:46:09;;;;;;;2.35;2.13;;;26.50;99.90;;;;;;5015299;28;20219;-72
2021/08/19 09:48:36;;;;;;;2.67;2.30;;;26.60;99.90;;;;;;5024303;28;20227;-72
2021/08/19 09:51:18;;;;;;;5.28;2.13;;;26.50;99.90;;;;;;5019850;28;20223;-72
2021/08/19 09:53:47;;;;;;;2.75;2.10;;;26.50;99.90;;;;;;5017829;28;20292;-71
2021/08/19 09:56:25;;;;;;;2.63;2.10;;;26.30;99.90;;;;;;5018509;28;20440;-71
2021/08/19 09:58:54;;;;;;;2.15;1.95;;;26.20;99.90;;;;;;5013017;28;20314;-70
2021/08/19 10:01:21;;;;;;;1.55;1.45;;;26.20;99.90;;;;;;5019788;28;20231;-72
2021/08/19 10:03:48;;;;;;;2.63;2.42;;;26.40;99.90;;;;;;5014533;28;20334;-71
2021/08/19 10:06:15;;;;;;;2.65;2.22;;;26.20;99.90;;;;;;5012855;28;20694;-70
2021/08/19 10:08:42;;;;;;;3.10;1.90;;;26.20;99.90;;;;;;5016783;28;20677;-70
2021/08/19 10:11:13;;;;;;;2.15;1.90;;;26.60;99.90;;;;;;5018144;28;20281;-73
2021/08/19 10:13:42;;;;;;;2.28;2.05;;;26.60;99.90;;;;;;5021580;28;20219;-72
2021/08/19 10:16:12;;;;;;;2.47;2.17;;;26.90;99.90;;;;;;5017363;28;20226;-72
2021/08/19 10:18:42;;;;;;;2.33;2.13;;;26.70;99.90;;;;;;5021878;28;20234;-72
2021/08/19 10:21:12;;;;;;;2.03;1.80;;;27.00;99.90;;;;;;5018211;28;20219;-70
2021/08/19 10:23:42;;;;;;;2.05;1.85;;;27.20;99.90;;;;;;5017507;28;20666;-71
2021/08/19 10:26:10;;;;;;;2.35;2.15;;;27.40;99.90;;;;;;5017270;28;20219;-73
2021/08/19 10:28:47;;;;;;;2.15;1.95;;;27.80;99.90;;;;;;5014103;28;20230;-69
2021/08/19 10:31:43;;;;;;;1.90;1.80;;;27.90;99.90;;;;;;5012147;28;20227;-73
2021/08/19 10:34:11;;;;;;;2.83;2.22;;;27.80;99.90;;;;;;5015229;28;20312;-71
2021/08/19 10:36:55;;;;;;;2.63;2.05;;;27.70;99.90;;;;;;5014393;28;20211;-73
2021/08/19 10:39:33;;;;;;;2.15;1.85;;;27.50;99.90;;;;;;5012910;28;20231;-70
2021/08/19 10:42:00;;;;;;;2.25;2.05;;;27.60;99.90;;;;;;5018626;28;20223;-71
2021/08/19 10:44:33;;;;;;;2.97;2.00;;;27.70;99.90;;;;;;5016071;28;20235;-71
2021/08/19 10:47:02;;;;;;;2.17;2.00;;;27.80;99.90;;;;;;5012539;28;20632;-71
2021/08/19 10:49:40;;;;;;;2.53;2.08;;;27.80;99.90;;;;;;5019419;28;20308;-70
2021/08/19 10:52:27;;;;;;;2.60;2.08;;;28.00;99.90;;;;;;5017374;28;20390;-72
2021/08/19 10:55:11;;;;;;;2.22;1.98;;;28.10;99.90;;;;;;5017461;28;20230;-71
2021/08/19 10:57:51;;;;;;;2.03;1.83;;;28.00;99.90;;;;;;5016820;28;20219;-71
2021/08/19 11:00:36;;;;;;;2.50;2.30;;;28.00;99.90;;;;;;5014536;28;20223;-71
2021/08/19 11:03:05;;;;;;;1.67;1.58;;;27.90;99.90;;;;;;5017847;28;20673;-72
2021/08/19 11:05:54;;;;;;;2.88;1.90;;;27.60;99.90;;;;;;5020366;28;20235;-71
2021/08/19 11:08:38;;;;;;;2.08;1.88;;;27.70;99.90;;;;;;5017660;28;20223;-73
2021/08/19 11:11:05;;;;;;;3.28;1.90;;;27.70;99.90;;;;;;5017449;28;20361;-71
2021/08/19 11:13:34;;;;;;;1.90;1.70;;;27.50;99.90;;;;;;5018554;28;20243;-70
2021/08/19 11:16:05;;;;;;;2.00;1.80;;;27.40;99.90;;;;;;5019799;28;20242;-73
2021/08/19 11:18:36;;;;;;;2.25;1.92;;;27.40;99.90;;;;;;5018639;28;20644;-72
2021/08/19 11:21:04;;;;;;;1.60;1.50;;;27.60;99.90;;;;;;5012407;28;20269;-70
2021/08/19 11:23:33;;;;;;;1.60;1.50;;;27.80;99.90;;;;;;5013865;28;20245;-73
2021/08/19 11:26:03;;;;;;;2.50;1.80;;;28.00;99.90;;;;;;5010664;28;20250;-71
2021/08/19 11:28:51;;;;;;;2.90;1.90;;;28.10;99.90;;;;;;5008342;28;20297;-73
2021/08/19 11:31:20;;;;;;;2.03;1.73;;;28.00;99.90;;;;;;5007197;28;20215;-72
2021/08/19 11:33:57;;;;;;;2.10;1.80;;;28.00;99.90;;;;;;5013002;28;20451;-72
2021/08/19 11:36:25;;;;;;;1.92;1.73;;;28.10;99.90;;;;;;5008497;28;20218;-71
2021/08/19 11:38:57;;;;;;;1.73;1.40;;;28.00;99.90;;;;;;5011704;28;20228;-71
2021/08/19 11:41:24;;;;;;;2.10;1.90;;;28.00;99.90;;;;;;5007638;28;20302;-71
2021/08/19 11:43:57;;;;;;;2.28;2.08;;;28.00;99.90;;;;;;5010037;28;20234;-70
2021/08/19 11:46:27;;;;;;;3.35;1.80;;;27.90;99.90;;;;;;5014961;28;20320;-70
2021/08/19 11:48:56;;;;;;;1.77;1.67;;;28.00;99.90;;;;;;5018923;28;20227;-72
2021/08/19 11:51:27;;;;;;;2.22;2.03;;;28.20;99.90;;;;;;5009584;28;20260;-72
2021/08/19 11:53:55;;;;;;;2.45;2.25;;;28.30;99.90;;;;;;5008113;28;20234;-71
2021/08/19 11:56:25;;;;;;;2.47;1.80;;;28.30;99.90;;;;;;5012099;28;20766;-71
2021/08/19 11:59:00;;;;;;;1.80;1.70;;;28.30;99.90;;;;;;5008649;28;20229;-71
2021/08/19 12:01:27;;;;;;;2.00;1.80;;;28.30;99.90;;;;;;5009302;28;20218;-73
2021/08/19 12:03:55;;;;;;;6.47;2.10;;;28.40;99.90;;;;;;5009154;28;20235;-72
2021/08/19 12:06:27;;;;;;;1.90;1.80;;;28.30;99.90;;;;;;5014569;28;20223;-71
2021/08/19 12:08:57;;;;;;;2.63;1.63;;;28.20;99.90;;;;;;5010889;28;20226;-70
2021/08/19 12:11:30;;;;;;;2.50;1.90;;;28.20;99.90;;;;;;5007720;28;20235;-70
2021/08/19 12:13:59;;;;;;;2.10;1.67;;;28.30;99.90;;;;;;5012492;28;20226;-73
2021/08/19 12:16:28;;;;;;;1.98;1.77;;;28.30;99.90;;;;;;5008468;28;20327;-71
2021/08/19 12:19:10;;;;;;;2.10;1.90;;;28.40;99.90;;;;;;5006784;28;20223;-72
2021/08/19 12:21:39;;;;;;;4.90;1.88;;;28.50;99.90;;;;;;5007361;28;20223;-71
2021/08/19 12:24:12;;;;;;;2.00;1.80;;;28.60;99.90;;;;;;5007760;28;20310;-72
2021/08/19 12:26:40;;;;;;;2.15;1.90;;;28.40;99.90;;;;;;5010307;28;20219;-72
2021/08/19 12:29:07;;;;;;;2.10;1.77;;;28.40;99.90;;;;;;5007122;28;20231;-70
2021/08/19 12:31:50;;;;;;;1.83;1.73;;;28.40;99.90;;;;;;5009094;28;20223;-72
2021/08/19 12:34:19;;;;;;;2.35;1.77;;;28.40;99.90;;;;;;5004125;28;20224;-71
2021/08/19 12:36:47;;;;;;;2.13;1.92;;;28.40;99.90;;;;;;5013478;28;20231;-71
2021/08/19 12:39:23;;;;;;;2.25;1.90;;;28.20;99.90;;;;;;5009840;28;20255;-72
2021/08/19 12:41:52;;;;;;;2.90;2.00;;;28.00;99.90;;;;;;5008969;28;20226;-71
2021/08/19 12:44:21;;;;;;;2.35;1.88;;;28.10;99.90;;;;;;5009694;28;20611;-73
2021/08/19 12:46:50;;;;;;;2.75;2.20;;;28.20;99.90;;;;;;5012753;28;20741;-70
2021/08/19 12:49:30;;;;;;;2.40;2.20;;;28.00;99.90;;;;;;5014136;28;20681;-71
2021/08/19 12:52:16;;;;;;;3.40;2.20;;;28.00;99.90;;;;;;5017865;28;20219;-70
2021/08/19 12:54:57;;;;;;;2.80;2.20;;;28.10;99.90;;;;;;5019022;28;20230;-70
2021/08/19 12:57:32;;;;;;;2.17;1.80;;;28.10;99.90;;;;;;5014568;28;20223;-72